createdAt,value
2023-04-26T00:03:19.649Z,4.90
2023-04-26T00:08:21.896Z,5.13
2023-04-26T00:13:24.535Z,4.90
2023-04-26T00:18:26.414Z,5.55
2023-04-26T00:23:28.288Z,5.47
2023-04-26T00:28:31.432Z,10.50
2023-04-26T00:33:33.424Z,5.95
2023-04-26T00:38:39.083Z,7.75
2023-04-26T00:43:41.323Z,6.20
2023-04-26T00:48:43.352Z,7.28
2023-04-26T00:53:48.685Z,6.35
2023-04-26T00:58:51.278Z,6.35
2023-04-26T01:03:56.873Z,5.88
2023-04-26T01:09:11.659Z,7.45
2023-04-26T01:14:22.919Z,7.20
2023-04-26T01:19:28.412Z,6.53
2023-04-26T01:24:35.723Z,8.05
2023-04-26T01:29:40.804Z,8.80
2023-04-26T01:34:43.073Z,8.50
2023-04-26T01:39:46.595Z,6.55
2023-04-26T01:44:53.033Z,7.18
2023-04-26T01:49:57.622Z,7.80
2023-04-26T01:55:00.539Z,7.40
2023-04-26T02:00:05.501Z,6.90
2023-04-26T02:05:33.863Z,7.15
2023-04-26T02:10:35.771Z,8.57
2023-04-26T02:15:40.924Z,7.68
2023-04-26T02:20:43.550Z,8.05
2023-04-26T02:25:47.425Z,7.63
2023-04-26T02:30:49.856Z,7.45
2023-04-26T02:35:54.705Z,8.23
2023-04-26T02:41:01.644Z,8.80
2023-04-26T02:46:22.927Z,6.35
2023-04-26T02:51:29.651Z,8.95
2023-04-26T02:56:31.956Z,7.30
2023-04-26T03:01:35.028Z,7.88
2023-04-26T03:06:54.914Z,8.68
2023-04-26T03:12:01.367Z,8.27
2023-04-26T03:17:04.491Z,7.93
2023-04-26T03:22:07.718Z,9.93
2023-04-26T03:27:10.294Z,7.25
2023-04-26T03:32:12.767Z,7.60
2023-04-26T03:37:15.772Z,9.00
2023-04-26T03:42:21.291Z,8.82
2023-04-26T03:47:24.395Z,8.35
2023-04-26T03:52:28.990Z,10.93
2023-04-26T03:57:30.915Z,8.98
2023-04-26T04:02:34.124Z,8.18
2023-04-26T04:07:44.604Z,10.07
2023-04-26T04:12:48.428Z,8.75
2023-04-26T04:17:50.891Z,9.50
2023-04-26T04:22:53.612Z,8.27
2023-04-26T04:27:55.700Z,8.80
2023-04-26T04:33:01.274Z,8.70
2023-04-26T04:38:04.618Z,8.63
2023-04-26T04:43:07.794Z,8.80
2023-04-26T04:48:12.676Z,8.13
2023-04-26T04:53:16.304Z,8.85
2023-04-26T04:58:18.245Z,8.77
2023-04-26T05:03:23.826Z,9.40
2023-04-26T05:08:30.283Z,9.73
2023-04-26T05:13:37.331Z,11.35
2023-04-26T05:18:45.209Z,9.77
2023-04-26T05:23:49.068Z,9.55
2023-04-26T05:28:51.555Z,8.30
2023-04-26T05:34:14.915Z,9.75
2023-04-26T05:39:17.140Z,9.35
2023-04-26T05:44:19.468Z,9.70
2023-04-26T05:49:22.937Z,9.73
2023-04-26T05:54:27.675Z,9.52
2023-04-26T05:59:33.225Z,9.25
2023-04-26T06:04:36.537Z,9.10
2023-04-26T06:10:06.338Z,8.52
2023-04-26T06:15:11.263Z,8.82
2023-04-26T06:20:14.527Z,8.40
2023-04-26T06:25:16.561Z,9.48
2023-04-26T06:30:18.793Z,7.68
2023-04-26T06:35:24.704Z,7.47
2023-04-26T06:40:29.535Z,6.75
2023-04-26T06:45:33.031Z,6.47
2023-04-26T06:50:45.036Z,6.18
2023-04-26T06:55:47.914Z,5.88
2023-04-26T07:00:50.476Z,6.63
2023-04-26T07:06:04.028Z,5.50
2023-04-26T07:11:10.466Z,5.05
2023-04-26T07:16:14.160Z,6.32
2023-04-26T07:21:16.794Z,4.50
2023-04-26T07:26:21.091Z,4.30
2023-04-26T07:31:23.568Z,5.28
2023-04-26T07:36:27.985Z,4.18
2023-04-26T07:41:34.262Z,3.97
2023-04-26T07:46:36.162Z,2.80
2023-04-26T07:51:38.014Z,3.15
2023-04-26T07:56:39.889Z,3.88
2023-04-26T08:01:41.985Z,3.30
2023-04-26T08:06:47.502Z,4.03
2023-04-26T08:11:49.660Z,3.33
2023-04-26T08:16:53.689Z,3.67
2023-04-26T08:21:57.329Z,2.72
2023-04-26T08:32:15.486Z,2.38
2023-04-26T08:37:17.621Z,2.55
2023-04-26T08:42:22.703Z,2.22
2023-04-26T08:52:58.797Z,4.22
2023-04-26T08:58:03.951Z,5.30
2023-04-26T09:03:05.893Z,4.32
2023-04-26T09:08:09.943Z,5.03
2023-04-26T09:13:18.046Z,605.93
2023-04-26T09:18:23.890Z,628.87
2023-04-26T09:23:29.559Z,641.07
2023-04-26T09:28:31.688Z,650.73
2023-04-26T09:33:57.560Z,608.13
2023-04-26T09:39:01.097Z,601.67
2023-04-26T09:44:03.571Z,582.00
2023-04-26T09:49:07.486Z,580.97
2023-04-26T09:54:16.676Z,622.17
2023-04-26T09:59:37.249Z,582.85
2023-04-26T10:04:39.704Z,540.80
2023-04-26T10:09:44.427Z,520.75
2023-04-26T10:14:47.230Z,528.10
2023-04-26T10:20:01.804Z,511.52
2023-04-26T10:25:11.738Z,516.60
2023-04-26T10:30:21.096Z,489.90
2023-04-26T10:35:24.909Z,522.75
2023-04-26T10:40:37.760Z,518.97
2023-04-26T10:45:42.853Z,504.98
2023-04-26T10:51:08.293Z,491.27
2023-04-26T10:56:28.458Z,508.55
2023-04-26T11:01:30.788Z,482.95
2023-04-26T11:06:57.931Z,473.88
2023-04-26T11:12:05.388Z,494.27
2023-04-26T11:17:08.912Z,514.42
2023-04-26T11:22:12.632Z,488.50
2023-04-26T11:27:16.922Z,522.17
2023-04-26T11:32:21.264Z,534.60
2023-04-26T11:37:23.458Z,528.80
2023-04-26T11:42:29.575Z,531.60
2023-04-26T11:47:36.713Z,527.28
2023-04-26T11:57:41.492Z,520.85
2023-04-26T12:02:48.255Z,556.42
2023-04-26T12:08:11.761Z,557.47
2023-04-26T12:13:17.355Z,561.58
2023-04-26T12:18:19.554Z,583.78
2023-04-26T12:23:24.172Z,583.97
2023-04-26T12:28:26.564Z,579.03
2023-04-26T12:33:28.483Z,598.70
2023-04-26T12:38:32.379Z,594.70
2023-04-26T12:43:35.345Z,582.13
2023-04-26T12:48:38.273Z,578.83
2023-04-26T12:53:40.131Z,568.80
2023-04-26T12:58:43.810Z,559.47
2023-04-26T13:03:48.738Z,548.35
2023-04-26T13:08:53.236Z,562.35
2023-04-26T13:13:56.934Z,564.05
2023-04-26T13:18:59.868Z,590.03
2023-04-26T13:24:02.330Z,591.97
2023-04-26T13:29:07.418Z,601.28
2023-04-26T13:34:11.010Z,626.35
2023-04-26T13:39:13.004Z,639.45
2023-04-26T13:44:15.835Z,628.38
2023-04-26T13:49:17.940Z,640.05
2023-04-26T13:54:25.476Z,655.90
2023-04-26T14:04:29.945Z,651.72
2023-04-26T14:09:32.736Z,674.28
2023-04-26T14:14:34.651Z,664.72
2023-04-26T14:19:44.697Z,676.88
2023-04-26T14:24:46.818Z,668.35
2023-04-26T14:29:48.674Z,668.72
2023-04-26T14:34:53.134Z,660.38
2023-04-26T14:39:56.653Z,638.85
2023-04-26T14:44:59.251Z,645.22
2023-04-26T14:50:01.394Z,653.88
2023-04-26T14:55:04.084Z,634.47
2023-04-26T15:00:09.780Z,611.38
2023-04-26T15:05:12.733Z,605.40
2023-04-26T15:10:14.646Z,606.45
2023-04-26T15:15:16.570Z,615.05
2023-04-26T15:20:19.373Z,590.55
2023-04-26T15:25:21.518Z,576.63
2023-04-26T15:30:26.375Z,578.67
2023-04-26T15:35:28.395Z,566.67
2023-04-26T15:40:30.861Z,559.78
2023-04-26T15:45:32.742Z,564.05
2023-04-26T15:50:34.585Z,574.08
2023-04-26T15:55:36.489Z,559.80
2023-04-26T16:00:41.959Z,566.20
2023-04-26T16:05:45.404Z,531.60
2023-04-26T16:10:47.825Z,541.05
2023-04-26T16:15:52.932Z,546.20
2023-04-26T16:21:04.677Z,539.17
2023-04-26T16:26:14.360Z,531.13
2023-04-26T16:31:16.266Z,520.42
2023-04-26T16:36:21.019Z,539.95
2023-04-26T16:41:23.694Z,531.33
2023-04-26T16:46:25.597Z,537.05
2023-04-26T16:51:31.417Z,520.90
2023-04-26T16:56:35.934Z,536.75
2023-04-26T17:01:37.849Z,521.50
2023-04-26T17:06:40.793Z,538.03
2023-04-26T17:11:44.884Z,525.60
2023-04-26T17:16:46.956Z,533.75
2023-04-26T17:21:49.064Z,517.28
2023-04-26T17:26:51.613Z,517.72
2023-04-26T17:31:53.531Z,521.42
2023-04-26T17:36:56.468Z,522.13
2023-04-26T17:41:59.971Z,499.08
2023-04-26T17:47:09.748Z,532.08
2023-04-26T17:52:11.675Z,518.38
2023-04-26T17:57:14.139Z,501.30
2023-04-26T18:02:18.866Z,503.60
2023-04-26T18:07:20.883Z,510.67
2023-04-26T18:12:23.801Z,508.40
2023-04-26T18:17:27.514Z,494.17
2023-04-26T18:22:29.501Z,505.55
2023-04-26T18:27:32.323Z,514.38
2023-04-26T18:32:36.553Z,523.08
2023-04-26T18:37:39.686Z,499.02
2023-04-26T18:42:42.134Z,546.77
2023-04-26T18:47:45.315Z,593.67
2023-04-26T18:52:47.193Z,512.57
2023-04-26T18:57:49.072Z,554.27
2023-04-26T19:02:51.466Z,472.77
2023-04-26T19:07:56.068Z,497.83
2023-04-26T19:12:57.974Z,508.93
2023-04-26T19:18:01.585Z,454.55
2023-04-26T19:23:07.639Z,482.93
2023-04-26T19:28:09.512Z,502.23
2023-04-26T19:33:13.542Z,425.95
2023-04-26T19:38:16.463Z,452.70
2023-04-26T19:43:18.579Z,502.17
2023-04-26T19:48:22.380Z,522.80
2023-04-26T19:53:24.906Z,470.52
2023-04-26T19:58:33.788Z,385.42
2023-04-26T20:03:37.533Z,401.27
2023-04-26T20:08:41.475Z,407.60
2023-04-26T20:13:52.178Z,397.98
2023-04-26T20:18:54.129Z,387.95
2023-04-26T20:23:56.027Z,391.00
2023-04-26T20:28:57.975Z,391.83
2023-04-26T20:34:00.723Z,390.48
2023-04-26T20:39:16.521Z,380.48
2023-04-26T20:44:18.666Z,383.98
2023-04-26T20:49:23.302Z,398.10
2023-04-26T20:54:26.573Z,369.23
2023-04-26T20:59:28.823Z,371.05
2023-04-26T21:04:31.123Z,373.08
2023-04-26T21:09:33.076Z,353.33
2023-04-26T21:14:34.990Z,359.58
2023-04-26T21:19:36.923Z,358.58
2023-04-26T21:24:38.795Z,354.50
2023-04-26T21:29:40.718Z,349.20
2023-04-26T21:34:42.813Z,348.58
2023-04-26T21:39:44.622Z,342.23
2023-04-26T21:44:46.741Z,334.85
2023-04-26T21:49:48.665Z,351.27
2023-04-26T21:54:52.971Z,323.55
2023-04-26T22:00:04.207Z,322.13
2023-04-26T22:05:16.455Z,324.40
2023-04-26T22:10:19.372Z,302.75
2023-04-26T22:15:21.911Z,325.95
2023-04-26T22:20:24.549Z,316.05
2023-04-26T22:25:28.613Z,324.33
2023-04-26T22:30:31.105Z,333.85
2023-04-26T22:35:35.718Z,331.77
2023-04-26T22:40:37.529Z,316.75
2023-04-26T22:45:39.414Z,315.75
2023-04-26T22:50:41.755Z,322.42
2023-04-26T22:55:44.124Z,306.45
2023-04-26T23:00:47.438Z,320.25
2023-04-26T23:05:49.851Z,313.38
2023-04-26T23:16:10.464Z,307.95
2023-04-26T23:21:12.832Z,305.77
2023-04-26T23:26:14.629Z,301.52
2023-04-26T23:31:16.491Z,308.85
2023-04-26T23:36:18.368Z,309.90
2023-04-26T23:41:20.815Z,303.30
2023-04-26T23:46:25.737Z,337.13
2023-04-26T23:51:27.706Z,299.42
2023-04-26T23:56:37.483Z,287.98
